Time;durP1;ratioP1;P1;durP2;ratioP2;P2;SDS_P1;SDS_P2;PMS_P1;PMS_P2;Temp;Humidity;BMP_temperature;BMP_pressure;BME280_temperature;BME280_humidity;BME280_pressure;Samples;Min_cycle;Max_cycle;Signal;HPM_P1;HPM_P2
2023/10/17 00:00:51;;;;;;;31.58;17.65;;;;;;;;;;5037700;28;20134;-65
2023/10/17 00:03:16;;;;;;;26.45;16.75;;;;;;;;;;5046908;28;20950;-65
2023/10/17 00:05:42;;;;;;;22.45;16.30;;;;;;;;;;5034984;28;20108;-65
2023/10/17 00:08:09;;;;;;;25.05;16.88;;;;;;;;;;5046634;28;20027;-66
2023/10/17 00:10:41;;;;;;;25.23;17.27;;;;;;;;;;5048175;28;20439;-65
2023/10/17 00:15:52;;;;;;;29.13;17.80;;;;;;;;;;5040425;28;20129;-65
2023/10/17 00:18:20;;;;;;;26.30;16.73;;;;;;;;;;5046788;28;20177;-66
2023/10/17 00:20:46;;;;;;;23.95;16.10;;;;;;;;;;5047897;28;20127;-65
2023/10/17 00:23:15;;;;;;;27.83;15.70;;;;;;;;;;5045955;28;20085;-65
2023/10/17 00:25:42;;;;;;;21.98;15.93;;;;;;;;;;5036473;28;20013;-65
2023/10/17 00:28:10;;;;;;;21.77;15.25;;;;;;;;;;5046759;28;20028;-65
2023/10/17 00:30:37;;;;;;;27.75;17.10;;;;;;;;;;5042497;28;20071;-65
2023/10/17 00:33:05;;;;;;;23.70;16.73;;;;;;;;;;5046509;28;20028;-67
2023/10/17 00:35:36;;;;;;;24.20;16.63;;;;;;;;;;5036200;28;20130;-65
2023/10/17 00:38:05;;;;;;;27.13;15.27;;;;;;;;;;5041782;28;20024;-65
2023/10/17 00:40:49;;;;;;;28.38;16.67;;;;;;;;;;5039331;28;20060;-65
2023/10/17 00:43:14;;;;;;;26.45;16.40;;;;;;;;;;5041636;28;20033;-66
2023/10/17 00:45:40;;;;;;;29.90;17.15;;;;;;;;;;5045347;28;20035;-66
2023/10/17 00:48:17;;;;;;;26.38;15.88;;;;;;;;;;5032078;28;20897;-65
2023/10/17 00:50:43;;;;;;;28.30;17.00;;;;;;;;;;5033725;28;20028;-66
2023/10/17 00:53:08;;;;;;;27.10;17.52;;;;;;;;;;5035002;28;20456;-66
2023/10/17 00:55:35;;;;;;;26.10;16.63;;;;;;;;;;5045227;28;20036;-66
2023/10/17 00:58:01;;;;;;;24.05;16.65;;;;;;;;;;5038631;28;20274;-66
2023/10/17 01:00:40;;;;;;;21.85;15.45;;;;;;;;;;5045011;28;20085;-66
2023/10/17 01:03:10;;;;;;;22.52;14.82;;;;;;;;;;5047444;28;20031;-66
2023/10/17 01:06:37;;;;;;;22.85;14.63;;;;;;;;;;5043012;28;20050;-66
2023/10/17 01:08:53;;;;;;;23.35;14.35;;;;;;;;;;5046494;28;20131;-66
2023/10/17 01:11:22;;;;;;;20.85;15.43;;;;;;;;;;5046625;28;20037;-65
2023/10/17 01:13:53;;;;;;;22.65;14.07;;;;;;;;;;5044103;28;20077;-65
2023/10/17 01:16:22;;;;;;;22.75;14.05;;;;;;;;;;5042722;28;20044;-65
2023/10/17 01:18:47;;;;;;;21.25;14.10;;;;;;;;;;5037004;28;20016;-65
2023/10/17 01:21:13;;;;;;;21.13;14.35;;;;;;;;;;5044232;28;21295;-65
2023/10/17 01:23:39;;;;;;;18.17;13.30;;;;;;;;;;5039014;28;20016;-65
2023/10/17 01:26:08;;;;;;;21.48;14.23;;;;;;;;;;5048106;28;20028;-65
2023/10/17 01:28:34;;;;;;;24.92;15.20;;;;;;;;;;5038243;28;20040;-65
2023/10/17 01:31:01;;;;;;;22.70;14.70;;;;;;;;;;5050197;28;20099;-66
2023/10/17 01:33:29;;;;;;;26.45;14.13;;;;;;;;;;5049772;28;20024;-65
2023/10/17 01:35:57;;;;;;;24.65;15.10;;;;;;;;;;5049276;28;20031;-66
2023/10/17 01:38:25;;;;;;;22.08;14.70;;;;;;;;;;5049429;28;20534;-65
2023/10/17 01:40:51;;;;;;;23.42;15.02;;;;;;;;;;5047823;28;20033;-66
2023/10/17 01:43:16;;;;;;;24.00;15.03;;;;;;;;;;5047602;28;20031;-65
2023/10/17 01:45:42;;;;;;;19.95;14.38;;;;;;;;;;5037456;28;20271;-66
2023/10/17 01:48:11;;;;;;;25.60;14.70;;;;;;;;;;5049786;28;20063;-66
2023/10/17 01:50:36;;;;;;;25.85;14.48;;;;;;;;;;5049330;28;21224;-66
2023/10/17 01:53:09;;;;;;;22.70;15.50;;;;;;;;;;5048374;28;20198;-66
2023/10/17 01:55:36;;;;;;;22.73;15.18;;;;;;;;;;5039397;28;20090;-66
2023/10/17 01:58:07;;;;;;;18.98;13.63;;;;;;;;;;5047959;28;20120;-66
2023/10/17 02:02:57;;;;;;;25.15;14.70;;;;;;;;;;5045597;28;20040;-66
2023/10/17 02:05:23;;;;;;;22.83;15.48;;;;;;;;;;5045088;28;20020;-65
2023/10/17 02:07:48;;;;;;;23.17;15.00;;;;;;;;;;5047589;28;20055;-66
2023/10/17 02:10:17;;;;;;;20.05;13.85;;;;;;;;;;5033876;28;20032;-65
2023/10/17 02:12:43;;;;;;;21.83;13.75;;;;;;;;;;5033597;28;20021;-65
2023/10/17 02:15:09;;;;;;;21.85;13.40;;;;;;;;;;5037009;28;20136;-65
2023/10/17 02:17:37;;;;;;;25.00;14.43;;;;;;;;;;5046828;28;20012;-65
2023/10/17 02:20:09;;;;;;;22.55;14.50;;;;;;;;;;5023488;28;20028;-66
2023/10/17 02:22:44;;;;;;;19.65;13.15;;;;;;;;;;5035722;28;20028;-65
2023/10/17 02:25:14;;;;;;;20.88;14.85;;;;;;;;;;5045768;28;20058;-67
2023/10/17 02:27:40;;;;;;;22.08;14.68;;;;;;;;;;5047782;28;20024;-67
2023/10/17 02:30:07;;;;;;;20.52;13.77;;;;;;;;;;5049797;28;20852;-67
2023/10/17 02:32:33;;;;;;;18.50;14.07;;;;;;;;;;5045464;28;20028;-67
2023/10/17 02:34:58;;;;;;;20.38;14.10;;;;;;;;;;5040381;28;20032;-67
2023/10/17 02:37:29;;;;;;;18.87;12.73;;;;;;;;;;5046883;28;20024;-67
2023/10/17 02:39:55;;;;;;;18.30;13.45;;;;;;;;;;5042844;28;20475;-67
2023/10/17 02:42:20;;;;;;;16.08;12.07;;;;;;;;;;5049396;28;20035;-65
2023/10/17 02:44:45;;;;;;;25.50;14.80;;;;;;;;;;5040562;28;20828;-65
2023/10/17 02:47:11;;;;;;;21.58;14.00;;;;;;;;;;5044098;28;20446;-65
2023/10/17 02:49:39;;;;;;;23.92;13.45;;;;;;;;;;5047603;28;20886;-65
2023/10/17 02:52:07;;;;;;;19.23;12.95;;;;;;;;;;5050838;28;20140;-65
2023/10/17 02:55:23;;;;;;;17.38;12.63;;;;;;;;;;5024716;28;20225;-65
2023/10/17 02:57:18;;;;;;;19.23;13.00;;;;;;;;;;5026002;28;20039;-66
2023/10/17 02:59:45;;;;;;;20.23;12.47;;;;;;;;;;5047566;28;20024;-66
2023/10/17 03:02:11;;;;;;;18.17;12.55;;;;;;;;;;5046349;28;20267;-66
2023/10/17 03:04:41;;;;;;;17.92;12.52;;;;;;;;;;5037461;28;20811;-66
2023/10/17 03:07:07;;;;;;;17.75;12.70;;;;;;;;;;5045549;28;20073;-66
2023/10/17 03:09:36;;;;;;;18.60;12.07;;;;;;;;;;5039076;28;20028;-65
2023/10/17 03:17:04;;;;;;;20.75;12.43;;;;;;;;;;5045182;28;20105;-65
2023/10/17 03:19:29;;;;;;;18.77;11.67;;;;;;;;;;5049568;28;20024;-66
2023/10/17 03:21:55;;;;;;;16.30;11.85;;;;;;;;;;5036520;28;20376;-67
2023/10/17 03:24:38;;;;;;;18.08;11.40;;;;;;;;;;5045954;28;20073;-66
2023/10/17 03:27:07;;;;;;;15.02;10.40;;;;;;;;;;5047561;28;20779;-67
2023/10/17 03:29:34;;;;;;;13.93;10.35;;;;;;;;;;5038876;28;20139;-66
2023/10/17 03:32:10;;;;;;;16.45;11.48;;;;;;;;;;5038630;28;20027;-67
2023/10/17 03:34:36;;;;;;;16.80;11.23;;;;;;;;;;5047844;28;20056;-67
2023/10/17 03:39:52;;;;;;;15.95;10.07;;;;;;;;;;5046943;28;20036;-67
2023/10/17 03:45:12;;;;;;;14.75;9.95;;;;;;;;;;5043213;28;20222;-66
2023/10/17 03:47:37;;;;;;;13.75;9.60;;;;;;;;;;5032344;28;20041;-67
2023/10/17 03:50:07;;;;;;;14.68;9.23;;;;;;;;;;5031384;28;20052;-67
2023/10/17 03:52:32;;;;;;;13.48;9.60;;;;;;;;;;5034102;28;20047;-67
2023/10/17 03:54:57;;;;;;;13.52;10.40;;;;;;;;;;5046139;28;20020;-67
2023/10/17 03:57:25;;;;;;;15.13;9.75;;;;;;;;;;5047942;28;20016;-67
2023/10/17 03:59:52;;;;;;;18.10;9.60;;;;;;;;;;5031034;28;20919;-67
2023/10/17 04:02:18;;;;;;;13.10;8.70;;;;;;;;;;5046594;28;20076;-67
2023/10/17 04:05:10;;;;;;;14.60;8.45;;;;;;;;;;5040223;28;20025;-68
2023/10/17 04:07:36;;;;;;;10.55;7.90;;;;;;;;;;5043333;28;20040;-68
2023/10/17 04:12:39;;;;;;;17.98;8.43;;;;;;;;;;5048176;28;20036;-66
2023/10/17 04:15:08;;;;;;;11.75;8.35;;;;;;;;;;5049806;28;20046;-66
2023/10/17 04:17:36;;;;;;;15.00;8.30;;;;;;;;;;5043843;28;20020;-67
2023/10/17 04:20:11;;;;;;;12.30;8.45;;;;;;;;;;5043352;28;20104;-66
2023/10/17 04:22:38;;;;;;;15.50;8.05;;;;;;;;;;5042291;28;20060;-66
2023/10/17 04:25:17;;;;;;;14.45;9.10;;;;;;;;;;5041695;28;20800;-64
2023/10/17 04:27:45;;;;;;;14.48;8.13;;;;;;;;;;5037252;28;20027;-65
2023/10/17 04:30:20;;;;;;;12.45;8.57;;;;;;;;;;5047159;28;20024;-66
2023/10/17 04:32:46;;;;;;;13.30;8.48;;;;;;;;;;5039709;28;20955;-66
2023/10/17 04:35:11;;;;;;;14.35;8.70;;;;;;;;;;5031707;28;20075;-66
2023/10/17 04:37:38;;;;;;;12.93;8.77;;;;;;;;;;5048964;28;20888;-64
2023/10/17 04:42:56;;;;;;;13.35;8.07;;;;;;;;;;5050936;28;20982;-66
2023/10/17 04:45:23;;;;;;;12.18;9.73;;;;;;;;;;5048405;28;20233;-66
2023/10/17 04:48:09;;;;;;;11.23;8.13;;;;;;;;;;5034416;28;20025;-67
2023/10/17 04:50:44;;;;;;;11.85;8.60;;;;;;;;;;5036204;28;20131;-67
2023/10/17 04:53:16;;;;;;;15.60;9.68;;;;;;;;;;5037497;28;20479;-66
2023/10/17 04:55:59;;;;;;;12.82;8.23;;;;;;;;;;5038848;28;20027;-67
2023/10/17 04:58:31;;;;;;;12.77;9.32;;;;;;;;;;5049761;28;20032;-69
2023/10/17 05:03:45;;;;;;;11.52;8.23;;;;;;;;;;5041116;28;20294;-65
2023/10/17 06:17:22;;;;;;;11.48;7.82;;;;;;;;;;5037037;28;20094;-66
2023/10/17 06:19:48;;;;;;;18.92;9.30;;;;;;;;;;5035158;28;20025;-66
2023/10/17 06:33:04;;;;;;;11.68;7.75;;;;;;;;;;5047703;28;20075;-66
2023/10/17 06:35:31;;;;;;;10.75;7.10;;;;;;;;;;5058325;28;20028;-66
2023/10/17 06:37:57;;;;;;;9.02;6.78;;;;;;;;;;5093064;28;20026;-66
2023/10/17 06:40:30;;;;;;;10.05;7.13;;;;;;;;;;5092639;28;20016;-66
2023/10/17 06:42:59;;;;;;;15.25;7.13;;;;;;;;;;5093234;28;20040;-66
2023/10/17 06:45:24;;;;;;;9.93;7.05;;;;;;;;;;5092483;28;20114;-67
2023/10/17 06:47:49;;;;;;;13.77;6.90;;;;;;;;;;5092638;28;20115;-66
2023/10/17 06:55:21;;;;;;;8.80;6.30;;;;;;;;;;5091374;28;20032;-66
2023/10/17 06:57:55;;;;;;;8.48;5.97;;;;;;;;;;5092561;28;20055;-66
2023/10/17 07:02:49;;;;;;;8.98;6.13;;;;;;;;;;5091368;28;20084;-66
2023/10/17 07:05:14;;;;;;;8.23;5.40;;;;;;;;;;5091164;28;20107;-66
2023/10/17 07:07:40;;;;;;;10.10;6.53;;;;;;;;;;5080736;28;20437;-66
2023/10/17 07:10:37;;;;;;;8.90;5.85;;;;;;;;;;5084715;28;20024;-66
2023/10/17 07:13:22;;;;;;;7.40;5.07;;;;;;;;;;5054156;28;20031;-66
2023/10/17 07:15:48;;;;;;;9.27;5.82;;;;;;;;;;5055718;28;20027;-66
2023/10/17 07:23:41;;;;;;;9.13;5.05;;;;;;;;;;5035881;28;21059;-66
2023/10/17 07:26:10;;;;;;;7.03;5.20;;;;;;;;;;5048280;28;20276;-67
2023/10/17 07:28:42;;;;;;;8.18;4.80;;;;;;;;;;5047030;28;20031;-66
2023/10/17 07:31:10;;;;;;;13.60;5.57;;;;;;;;;;5034758;28;20183;-66
2023/10/17 07:33:36;;;;;;;9.30;5.10;;;;;;;;;;5049282;28;20012;-66
2023/10/17 07:36:01;;;;;;;7.95;4.35;;;;;;;;;;5041980;28;20125;-67
2023/10/17 07:38:29;;;;;;;10.10;5.20;;;;;;;;;;5042267;28;20958;-66
2023/10/17 07:41:12;;;;;;;10.20;5.13;;;;;;;;;;5046434;28;20074;-66
2023/10/17 07:43:42;;;;;;;10.35;5.50;;;;;;;;;;5047402;28;20028;-67
2023/10/17 07:46:14;;;;;;;7.60;5.55;;;;;;;;;;5047312;28;20089;-66
2023/10/17 07:48:39;;;;;;;8.88;4.97;;;;;;;;;;5047088;28;20016;-66
2023/10/17 07:51:06;;;;;;;7.43;5.00;;;;;;;;;;5047828;28;20801;-66
2023/10/17 07:53:32;;;;;;;8.55;4.85;;;;;;;;;;5039626;28;20263;-66
2023/10/17 07:56:12;;;;;;;7.15;4.88;;;;;;;;;;5082353;28;20034;-66
2023/10/17 07:58:44;;;;;;;8.80;4.90;;;;;;;;;;5080958;28;20056;-67
2023/10/17 08:01:14;;;;;;;8.73;5.32;;;;;;;;;;5091014;28;20024;-66
2023/10/17 08:03:40;;;;;;;11.48;5.28;;;;;;;;;;5091230;28;20020;-65
2023/10/17 08:06:05;;;;;;;10.85;4.78;;;;;;;;;;5090449;28;20035;-66
2023/10/17 08:08:34;;;;;;;8.55;4.85;;;;;;;;;;5085982;28;20479;-66
2023/10/17 08:11:08;;;;;;;8.23;4.55;;;;;;;;;;5052856;28;20024;-66
2023/10/17 08:13:34;;;;;;;9.57;5.22;;;;;;;;;;5043228;28;20028;-66
2023/10/17 08:16:24;;;;;;;6.95;5.28;;;;;;;;;;5046956;28;20908;-66
2023/10/17 08:18:55;;;;;;;10.50;6.00;;;;;;;;;;5040804;28;20031;-66
2023/10/17 08:23:57;;;;;;;8.27;4.97;;;;;;;;;;5042569;28;20036;-66
2023/10/17 08:26:28;;;;;;;9.07;5.30;;;;;;;;;;5042094;28;21068;-66
2023/10/17 08:28:56;;;;;;;8.80;4.95;;;;;;;;;;5040218;28;20390;-66
2023/10/17 08:31:24;;;;;;;11.52;5.15;;;;;;;;;;5045782;28;20028;-66
2023/10/17 08:33:57;;;;;;;9.38;4.40;;;;;;;;;;5045671;28;20032;-66
2023/10/17 08:36:23;;;;;;;7.05;4.35;;;;;;;;;;5045865;28;20083;-66
2023/10/17 08:38:49;;;;;;;8.23;4.78;;;;;;;;;;5046765;28;20020;-66
2023/10/17 08:41:15;;;;;;;7.13;4.80;;;;;;;;;;5044664;28;20035;-66
2023/10/17 08:43:41;;;;;;;8.35;4.60;;;;;;;;;;5047619;28;20127;-66
2023/10/17 08:46:09;;;;;;;10.10;4.90;;;;;;;;;;5044401;28;20031;-65
2023/10/17 08:48:36;;;;;;;12.75;4.78;;;;;;;;;;5032372;28;20355;-65
2023/10/17 08:51:06;;;;;;;10.73;5.32;;;;;;;;;;5036713;28;20024;-65
2023/10/17 08:53:31;;;;;;;9.10;3.90;;;;;;;;;;5035401;28;20020;-65
2023/10/17 08:55:58;;;;;;;9.00;4.70;;;;;;;;;;5047504;28;20843;-66
2023/10/17 08:58:32;;;;;;;5.95;4.10;;;;;;;;;;5039271;28;20035;-65
2023/10/17 09:01:07;;;;;;;7.32;4.07;;;;;;;;;;5039069;28;20867;-65
2023/10/17 09:03:35;;;;;;;9.10;4.78;;;;;;;;;;5041219;28;20032;-66
2023/10/17 09:11:29;;;;;;;6.03;4.33;;;;;;;;;;5045877;28;20051;-66
2023/10/17 09:14:14;;;;;;;6.57;3.92;;;;;;;;;;5038912;28;20866;-66
2023/10/17 09:16:47;;;;;;;8.27;4.28;;;;;;;;;;5042946;28;20031;-67
2023/10/17 09:19:14;;;;;;;7.53;4.07;;;;;;;;;;5043985;28;20164;-64
2023/10/17 09:21:43;;;;;;;6.03;3.78;;;;;;;;;;5034914;28;20036;-66
2023/10/17 09:24:32;;;;;;;7.70;3.50;;;;;;;;;;5044789;28;20028;-66
2023/10/17 09:26:58;;;;;;;5.70;3.40;;;;;;;;;;5047676;28;20035;-66
2023/10/17 09:29:27;;;;;;;5.90;3.53;;;;;;;;;;5041750;28;20056;-66
2023/10/17 09:31:53;;;;;;;5.38;3.80;;;;;;;;;;5044403;28;20036;-66
2023/10/17 09:34:23;;;;;;;5.55;3.83;;;;;;;;;;5046029;28;20127;-66
2023/10/17 09:36:48;;;;;;;7.47;3.83;;;;;;;;;;5049219;28;20109;-66
2023/10/17 09:39:18;;;;;;;6.88;3.78;;;;;;;;;;5037475;28;20036;-66
2023/10/17 09:41:43;;;;;;;6.43;3.67;;;;;;;;;;5045605;28;20879;-66
2023/10/17 09:44:10;;;;;;;4.40;3.25;;;;;;;;;;5042815;28;20016;-65
2023/10/17 09:46:35;;;;;;;4.65;3.03;;;;;;;;;;5042789;28;20109;-66
2023/10/17 09:49:02;;;;;;;6.65;3.70;;;;;;;;;;5047308;28;20032;-69
2023/10/17 09:51:33;;;;;;;6.40;3.30;;;;;;;;;;5036878;28;20862;-66
2023/10/17 09:53:58;;;;;;;6.93;2.92;;;;;;;;;;5042865;28;20060;-65
2023/10/17 09:56:35;;;;;;;5.68;3.42;;;;;;;;;;5047266;28;20021;-66
2023/10/17 09:59:05;;;;;;;5.35;3.05;;;;;;;;;;5048949;28;20024;-65
2023/10/17 10:01:31;;;;;;;5.25;2.97;;;;;;;;;;5038534;28;20053;-65
2023/10/17 10:03:58;;;;;;;4.85;2.78;;;;;;;;;;5038756;28;20020;-66
2023/10/17 10:06:33;;;;;;;7.80;3.22;;;;;;;;;;5045028;28;20027;-65
2023/10/17 10:09:01;;;;;;;5.50;3.42;;;;;;;;;;5048290;28;20017;-68
2023/10/17 10:11:45;;;;;;;6.53;3.47;;;;;;;;;;5024969;28;20032;-68
2023/10/17 10:14:40;;;;;;;4.50;3.00;;;;;;;;;;5057307;28;20044;-66
2023/10/17 10:17:08;;;;;;;7.70;3.13;;;;;;;;;;5063807;28;20089;-66
2023/10/17 10:19:40;;;;;;;5.38;3.28;;;;;;;;;;5075075;28;20020;-66
2023/10/17 10:22:07;;;;;;;6.40;3.25;;;;;;;;;;5063444;28;20020;-66
2023/10/17 10:24:33;;;;;;;4.82;2.42;;;;;;;;;;5047070;28;20028;-67
2023/10/17 10:27:11;;;;;;;6.32;2.90;;;;;;;;;;5036966;28;20051;-68
2023/10/17 10:29:37;;;;;;;5.60;3.13;;;;;;;;;;5046423;28;20841;-65
2023/10/17 10:32:06;;;;;;;4.60;2.75;;;;;;;;;;5044628;28;20416;-65
2023/10/17 10:34:37;;;;;;;4.50;2.58;;;;;;;;;;5043053;28;20826;-66
2023/10/17 10:37:03;;;;;;;5.07;2.30;;;;;;;;;;5034703;28;20028;-66
2023/10/17 10:39:30;;;;;;;8.73;2.63;;;;;;;;;;5037170;28;20028;-66
2023/10/17 10:41:59;;;;;;;4.57;2.50;;;;;;;;;;5038514;28;20928;-66
2023/10/17 10:44:25;;;;;;;5.25;3.08;;;;;;;;;;5046562;28;20928;-65
2023/10/17 10:46:52;;;;;;;6.95;2.60;;;;;;;;;;5041115;28;20134;-65
2023/10/17 10:49:24;;;;;;;6.25;2.50;;;;;;;;;;5046998;28;20035;-66
2023/10/17 10:51:50;;;;;;;5.85;2.75;;;;;;;;;;5045167;28;20071;-67
2023/10/17 10:54:17;;;;;;;5.10;2.70;;;;;;;;;;5046464;28;20020;-66
2023/10/17 10:56:49;;;;;;;5.35;2.42;;;;;;;;;;5040295;28;20031;-66
2023/10/17 10:59:19;;;;;;;5.15;2.47;;;;;;;;;;5043715;28;20024;-66
2023/10/17 11:01:47;;;;;;;5.07;2.63;;;;;;;;;;5043715;28;20233;-66
2023/10/17 11:04:13;;;;;;;5.68;2.25;;;;;;;;;;5054286;28;20869;-66
2023/10/17 11:06:40;;;;;;;4.50;2.60;;;;;;;;;;5047935;28;20063;-67
2023/10/17 11:09:09;;;;;;;3.60;2.17;;;;;;;;;;5038990;28;20078;-67
2023/10/17 11:11:42;;;;;;;3.92;2.03;;;;;;;;;;5044221;28;20078;-66
2023/10/17 11:14:13;;;;;;;5.43;2.67;;;;;;;;;;5041233;28;20036;-66
2023/10/17 11:16:39;;;;;;;3.47;2.50;;;;;;;;;;5044978;28;20867;-67
2023/10/17 11:19:05;;;;;;;4.55;2.15;;;;;;;;;;5054014;28;20106;-67
2023/10/17 11:21:31;;;;;;;4.70;2.45;;;;;;;;;;5044832;28;20050;-67
2023/10/17 11:24:00;;;;;;;4.97;2.22;;;;;;;;;;5043735;28;20016;-66
2023/10/17 11:26:28;;;;;;;4.18;1.83;;;;;;;;;;5052775;28;20032;-67
2023/10/17 11:28:53;;;;;;;3.70;1.95;;;;;;;;;;5045355;28;20015;-66
2023/10/17 11:31:22;;;;;;;6.07;2.47;;;;;;;;;;5041651;28;20031;-67
2023/10/17 11:33:59;;;;;;;6.38;2.60;;;;;;;;;;5047151;28;20028;-67
2023/10/17 11:36:25;;;;;;;3.83;1.98;;;;;;;;;;5046929;28;20031;-67
2023/10/17 11:38:55;;;;;;;5.68;2.00;;;;;;;;;;5032543;28;20032;-67
2023/10/17 11:41:20;;;;;;;4.00;2.00;;;;;;;;;;5037153;28;20156;-67
2023/10/17 11:43:53;;;;;;;6.65;2.10;;;;;;;;;;5043250;28;20148;-67
2023/10/17 11:46:31;;;;;;;4.50;1.80;;;;;;;;;;5040985;28;20032;-67
2023/10/17 11:49:39;;;;;;;5.90;1.73;;;;;;;;;;5043197;28;20013;-67
2023/10/17 11:52:04;;;;;;;3.50;1.77;;;;;;;;;;5045618;28;20036;-68
2023/10/17 11:54:29;;;;;;;4.95;1.92;;;;;;;;;;5043636;28;20020;-67
2023/10/17 11:56:55;;;;;;;4.07;1.90;;;;;;;;;;5046563;28;20362;-67
2023/10/17 11:59:20;;;;;;;5.53;1.90;;;;;;;;;;5045168;28;20070;-67
2023/10/17 12:01:45;;;;;;;3.60;1.73;;;;;;;;;;5042556;28;20917;-67
2023/10/17 12:04:11;;;;;;;4.53;1.98;;;;;;;;;;5041458;28;20088;-66
2023/10/17 12:06:39;;;;;;;4.57;2.25;;;;;;;;;;5045473;28;20106;-67
2023/10/17 12:09:26;;;;;;;8.68;1.90;;;;;;;;;;5041377;28;20050;-67
2023/10/17 12:11:53;;;;;;;3.38;2.05;;;;;;;;;;5038441;28;20148;-68
2023/10/17 12:14:22;;;;;;;5.35;2.25;;;;;;;;;;5047641;28;20020;-67
2023/10/17 12:16:48;;;;;;;3.47;1.70;;;;;;;;;;5047086;28;20027;-67
2023/10/17 12:19:13;;;;;;;5.35;2.08;;;;;;;;;;5049695;28;20027;-67
2023/10/17 12:21:39;;;;;;;3.83;1.70;;;;;;;;;;5043120;28;20033;-67
2023/10/17 12:24:11;;;;;;;3.80;1.95;;;;;;;;;;5038101;28;20933;-64
2023/10/17 12:26:37;;;;;;;4.90;1.85;;;;;;;;;;5045662;28;20300;-65
2023/10/17 12:29:02;;;;;;;6.45;2.20;;;;;;;;;;5038671;28;20822;-65
2023/10/17 12:31:27;;;;;;;3.42;1.70;;;;;;;;;;5040068;28;20027;-65
2023/10/17 12:33:52;;;;;;;5.45;1.92;;;;;;;;;;5034659;28;20085;-65
2023/10/17 12:36:19;;;;;;;3.50;1.77;;;;;;;;;;5033822;28;20142;-65
2023/10/17 12:38:49;;;;;;;4.32;1.50;;;;;;;;;;5044902;28;20285;-65
2023/10/17 12:41:14;;;;;;;2.78;1.50;;;;;;;;;;5036451;28;20020;-64
2023/10/17 12:43:42;;;;;;;3.00;1.35;;;;;;;;;;5046874;28;20198;-65
2023/10/17 12:46:08;;;;;;;3.67;1.75;;;;;;;;;;5047161;28;20024;-66
2023/10/17 12:48:33;;;;;;;3.53;1.50;;;;;;;;;;5047525;28;20080;-66
2023/10/17 12:50:59;;;;;;;3.15;1.80;;;;;;;;;;5044832;28;20862;-65
2023/10/17 12:53:24;;;;;;;3.00;1.30;;;;;;;;;;5050463;28;20028;-65
2023/10/17 12:55:49;;;;;;;4.53;1.50;;;;;;;;;;5051036;28;20028;-65
2023/10/17 12:58:18;;;;;;;4.10;1.37;;;;;;;;;;5064227;28;20123;-64
2023/10/17 13:00:47;;;;;;;4.70;1.48;;;;;;;;;;5047484;28;20278;-65
2023/10/17 13:03:12;;;;;;;2.97;1.33;;;;;;;;;;5077877;28;20158;-65
2023/10/17 13:05:37;;;;;;;4.18;1.42;;;;;;;;;;5086803;28;20103;-65
2023/10/17 13:08:04;;;;;;;2.47;1.17;;;;;;;;;;5060049;28;20036;-65
2023/10/17 13:10:30;;;;;;;4.03;1.40;;;;;;;;;;5080242;28;20012;-65
2023/10/17 13:12:58;;;;;;;2.92;1.45;;;;;;;;;;5093429;28;20043;-65
2023/10/17 13:15:24;;;;;;;4.75;1.40;;;;;;;;;;5065755;28;20020;-65
2023/10/17 13:17:52;;;;;;;2.88;1.30;;;;;;;;;;5093065;28;20034;-65
2023/10/17 13:20:22;;;;;;;3.55;1.30;;;;;;;;;;5093630;28;20035;-66
2023/10/17 13:22:47;;;;;;;3.85;1.50;;;;;;;;;;5053977;28;20202;-65
2023/10/17 13:25:13;;;;;;;3.05;1.65;;;;;;;;;;5050049;28;20823;-66
2023/10/17 13:27:38;;;;;;;2.70;1.20;;;;;;;;;;5049329;28;20135;-66
2023/10/17 13:30:07;;;;;;;4.40;1.57;;;;;;;;;;5057635;28;20100;-66
2023/10/17 13:32:32;;;;;;;3.45;1.30;;;;;;;;;;5089001;28;20290;-65
2023/10/17 13:34:57;;;;;;;2.30;0.90;;;;;;;;;;5093069;28;20059;-65
2023/10/17 13:37:23;;;;;;;4.30;1.40;;;;;;;;;;5058107;28;20818;-65
2023/10/17 13:39:48;;;;;;;3.97;1.42;;;;;;;;;;5089644;28;20027;-65
2023/10/17 13:42:13;;;;;;;2.80;1.40;;;;;;;;;;5092559;28;20153;-65
2023/10/17 13:44:39;;;;;;;5.63;1.50;;;;;;;;;;5092019;28;20671;-65
2023/10/17 13:47:05;;;;;;;4.03;1.43;;;;;;;;;;5089918;28;20331;-65
2023/10/17 13:49:31;;;;;;;3.80;1.10;;;;;;;;;;5092756;28;20693;-65
2023/10/17 13:51:56;;;;;;;3.58;1.80;;;;;;;;;;5089017;28;20098;-65
2023/10/17 13:54:21;;;;;;;3.47;1.30;;;;;;;;;;5070395;28;20016;-62
2023/10/17 13:56:46;;;;;;;3.83;1.27;;;;;;;;;;5064867;28;20512;-65
2023/10/17 13:59:13;;;;;;;5.67;1.30;;;;;;;;;;5062938;28;20756;-66
2023/10/17 14:01:41;;;;;;;3.15;1.23;;;;;;;;;;5050825;28;20270;-65
2023/10/17 14:04:09;;;;;;;3.03;1.35;;;;;;;;;;5046905;28;20081;-65
2023/10/17 14:06:38;;;;;;;7.43;1.40;;;;;;;;;;5047691;28;20021;-74
2023/10/17 14:09:03;;;;;;;2.30;1.13;;;;;;;;;;5048977;28;20032;-65
2023/10/17 14:11:29;;;;;;;3.78;1.30;;;;;;;;;;5049487;28;20034;-66
2023/10/17 14:13:54;;;;;;;2.60;1.27;;;;;;;;;;5045402;28;20060;-66
2023/10/17 14:16:22;;;;;;;2.78;1.20;;;;;;;;;;5042471;28;20917;-66
2023/10/17 14:18:52;;;;;;;2.42;1.10;;;;;;;;;;5054210;28;20020;-66
2023/10/17 14:23:57;;;;;;;2.70;1.20;;;;;;;;;;5042965;28;20925;-67
2023/10/17 14:26:22;;;;;;;3.17;1.40;;;;;;;;;;5036432;28;20032;-66
2023/10/17 14:28:48;;;;;;;2.80;1.10;;;;;;;;;;5049055;28;20841;-65
2023/10/17 14:31:13;;;;;;;4.63;1.40;;;;;;;;;;5048648;28;20615;-66
2023/10/17 14:33:38;;;;;;;2.45;1.10;;;;;;;;;;5042938;28;20031;-65
2023/10/17 14:36:04;;;;;;;3.37;1.40;;;;;;;;;;5074043;28;20407;-66
2023/10/17 14:38:31;;;;;;;4.07;1.27;;;;;;;;;;5036697;28;20279;-66
2023/10/17 14:40:58;;;;;;;3.28;1.20;;;;;;;;;;5047803;28;20027;-66
2023/10/17 14:43:23;;;;;;;4.40;1.15;;;;;;;;;;5041024;28;20908;-66
2023/10/17 14:45:48;;;;;;;2.55;1.08;;;;;;;;;;5046199;28;20016;-65
2023/10/17 14:48:14;;;;;;;2.93;1.27;;;;;;;;;;5049155;28;20063;-66
2023/10/17 14:50:39;;;;;;;4.00;1.07;;;;;;;;;;5047107;28;20258;-65
2023/10/17 14:53:05;;;;;;;2.60;1.20;;;;;;;;;;5048332;28;20305;-65
2023/10/17 14:55:30;;;;;;;3.72;1.38;;;;;;;;;;5043191;28;20023;-65
2023/10/17 14:57:55;;;;;;;2.97;1.00;;;;;;;;;;5044437;28;20059;-65
2023/10/17 15:00:21;;;;;;;4.07;1.40;;;;;;;;;;5043790;28;20966;-66
2023/10/17 15:02:47;;;;;;;2.65;1.10;;;;;;;;;;5028019;28;20271;-65
2023/10/17 15:05:13;;;;;;;4.05;1.35;;;;;;;;;;5045642;28;20059;-65
2023/10/17 15:07:39;;;;;;;3.15;1.15;;;;;;;;;;5041721;28;20025;-65
2023/10/17 15:10:11;;;;;;;2.38;1.13;;;;;;;;;;5040242;28;20126;-66
2023/10/17 15:12:37;;;;;;;3.47;1.55;;;;;;;;;;5068372;28;20027;-65
2023/10/17 15:15:02;;;;;;;4.40;1.38;;;;;;;;;;5045843;28;20035;-65
2023/10/17 15:17:27;;;;;;;2.83;1.30;;;;;;;;;;5046420;28;20016;-66
2023/10/17 15:19:54;;;;;;;4.33;1.40;;;;;;;;;;5040255;28;20056;-65
2023/10/17 15:22:19;;;;;;;2.60;1.20;;;;;;;;;;5044641;28;20285;-65
2023/10/17 15:24:48;;;;;;;3.70;0.93;;;;;;;;;;5046665;28;20024;-65
2023/10/17 15:27:14;;;;;;;3.38;1.52;;;;;;;;;;5044754;28;21283;-66
2023/10/17 15:29:39;;;;;;;3.00;1.25;;;;;;;;;;5047050;28;20024;-66
2023/10/17 15:32:04;;;;;;;3.63;1.20;;;;;;;;;;5055780;28;20043;-66
2023/10/17 15:34:31;;;;;;;3.67;1.40;;;;;;;;;;5043942;28;21214;-66
2023/10/17 15:36:56;;;;;;;2.65;1.08;;;;;;;;;;5047182;28;20484;-66
2023/10/17 15:39:29;;;;;;;2.87;1.10;;;;;;;;;;5047627;28;20027;-66
2023/10/17 15:41:54;;;;;;;2.67;0.93;;;;;;;;;;5040671;28;20274;-65
2023/10/17 15:44:20;;;;;;;5.63;1.30;;;;;;;;;;5047769;28;20028;-65
2023/10/17 15:46:45;;;;;;;2.45;1.00;;;;;;;;;;5037027;28;20290;-66
2023/10/17 15:49:13;;;;;;;3.83;1.25;;;;;;;;;;5047292;28;20020;-65
2023/10/17 15:51:39;;;;;;;2.97;1.25;;;;;;;;;;5034872;28;20139;-65
2023/10/17 15:54:04;;;;;;;6.32;1.20;;;;;;;;;;5034739;28;20035;-65
2023/10/17 15:56:30;;;;;;;2.58;1.02;;;;;;;;;;5044442;28;20130;-66
2023/10/17 15:58:55;;;;;;;4.78;1.08;;;;;;;;;;5047818;28;21076;-66
2023/10/17 16:01:21;;;;;;;2.50;1.00;;;;;;;;;;5034124;28;20125;-65
2023/10/17 16:03:46;;;;;;;2.38;1.10;;;;;;;;;;5033920;28;20085;-65
2023/10/17 16:06:11;;;;;;;3.80;1.33;;;;;;;;;;5047254;28;20870;-65
2023/10/17 16:08:37;;;;;;;4.30;1.10;;;;;;;;;;5035530;28;21255;-65
2023/10/17 16:11:02;;;;;;;3.08;0.90;;;;;;;;;;5046974;28;20050;-65
2023/10/17 16:13:28;;;;;;;3.20;0.90;;;;;;;;;;5046173;28;20056;-65
2023/10/17 16:15:58;;;;;;;4.28;1.40;;;;;;;;;;5042533;28;20021;-65
2023/10/17 16:18:23;;;;;;;4.47;1.40;;;;;;;;;;5053386;28;20152;-65
2023/10/17 16:20:49;;;;;;;3.42;1.55;;;;;;;;;;5035277;28;20839;-65
2023/10/17 16:23:14;;;;;;;4.63;1.38;;;;;;;;;;5045783;28;20020;-65
2023/10/17 16:25:46;;;;;;;2.58;0.90;;;;;;;;;;5038500;28;20026;-65
2023/10/17 16:28:11;;;;;;;5.32;1.20;;;;;;;;;;5048333;28;20253;-65
2023/10/17 16:30:37;;;;;;;2.78;1.20;;;;;;;;;;5033213;28;20871;-65
2023/10/17 16:33:03;;;;;;;3.22;1.10;;;;;;;;;;5037226;28;20039;-65
2023/10/17 16:35:31;;;;;;;2.58;1.13;;;;;;;;;;5042962;28;20074;-65
2023/10/17 16:37:57;;;;;;;4.88;1.05;;;;;;;;;;5049384;28;20032;-65
2023/10/17 16:40:23;;;;;;;2.88;1.10;;;;;;;;;;5048036;28;21059;-66
2023/10/17 16:42:48;;;;;;;2.28;1.00;;;;;;;;;;5045215;28;20020;-65
2023/10/17 16:45:14;;;;;;;2.08;1.00;;;;;;;;;;5043241;28;20818;-65
2023/10/17 16:47:39;;;;;;;3.97;1.20;;;;;;;;;;5047753;28;20032;-65
2023/10/17 16:50:05;;;;;;;3.88;1.38;;;;;;;;;;5052354;28;20086;-66
2023/10/17 16:52:31;;;;;;;3.85;1.08;;;;;;;;;;5054048;28;20148;-66